sensor_id;sensor_type;location;lat;lon;timestamp;P1;durP1;ratioP1;P2;durP2;ratioP2
21886;SDS011;11108;49.988;8.182;2023-04-07T00:00:38;1.20;;;1.20;;
21886;SDS011;11108;49.988;8.182;2023-04-07T00:03:03;1.40;;;1.40;;
21886;SDS011;11108;49.988;8.182;2023-04-07T00:05:31;1.40;;;1.40;;
21886;SDS011;11108;49.988;8.182;2023-04-07T00:07:56;1.87;;;1.40;;
21886;SDS011;11108;49.988;8.182;2023-04-07T00:10:21;1.53;;;1.43;;
21886;SDS011;11108;49.988;8.182;2023-04-07T00:12:46;1.23;;;1.10;;
21886;SDS011;11108;49.988;8.182;2023-04-07T00:15:11;1.20;;;1.20;;
21886;SDS011;11108;49.988;8.182;2023-04-07T00:17:37;1.43;;;1.30;;
21886;SDS011;11108;49.988;8.182;2023-04-07T00:20:02;1.37;;;1.37;;
21886;SDS011;11108;49.988;8.182;2023-04-07T00:22:27;1.20;;;1.20;;
21886;SDS011;11108;49.988;8.182;2023-04-07T00:24:53;1.30;;;1.20;;
21886;SDS011;11108;49.988;8.182;2023-04-07T00:27:18;1.90;;;1.13;;
21886;SDS011;11108;49.988;8.182;2023-04-07T00:29:43;1.30;;;1.20;;
21886;SDS011;11108;49.988;8.182;2023-04-07T00:32:10;1.57;;;1.43;;
21886;SDS011;11108;49.988;8.182;2023-04-07T00:34:35;1.67;;;1.30;;
21886;SDS011;11108;49.988;8.182;2023-04-07T00:37:01;1.60;;;1.50;;
21886;SDS011;11108;49.988;8.182;2023-04-07T00:39:26;1.27;;;1.27;;
21886;SDS011;11108;49.988;8.182;2023-04-07T00:41:51;1.17;;;1.17;;
21886;SDS011;11108;49.988;8.182;2023-04-07T00:44:17;1.20;;;1.20;;
21886;SDS011;11108;49.988;8.182;2023-04-07T00:46:42;1.63;;;1.53;;
21886;SDS011;11108;49.988;8.182;2023-04-07T00:49:07;1.57;;;1.30;;
21886;SDS011;11108;49.988;8.182;2023-04-07T00:51:32;1.40;;;1.40;;
21886;SDS011;11108;49.988;8.182;2023-04-07T00:53:58;1.33;;;1.23;;
21886;SDS011;11108;49.988;8.182;2023-04-07T00:56:23;1.63;;;1.53;;
21886;SDS011;11108;49.988;8.182;2023-04-07T00:58:49;1.23;;;1.23;;
21886;SDS011;11108;49.988;8.182;2023-04-07T01:01:15;1.20;;;1.10;;
21886;SDS011;11108;49.988;8.182;2023-04-07T01:06:12;1.37;;;1.37;;
21886;SDS011;11108;49.988;8.182;2023-04-07T01:08:46;1.23;;;1.23;;
21886;SDS011;11108;49.988;8.182;2023-04-07T01:11:16;1.57;;;1.47;;
21886;SDS011;11108;49.988;8.182;2023-04-07T01:13:48;1.70;;;1.70;;
21886;SDS011;11108;49.988;8.182;2023-04-07T01:16:15;1.27;;;1.23;;
21886;SDS011;11108;49.988;8.182;2023-04-07T01:18:41;1.40;;;1.40;;
21886;SDS011;11108;49.988;8.182;2023-04-07T01:21:08;2.50;;;1.77;;
21886;SDS011;11108;49.988;8.182;2023-04-07T01:23:38;1.40;;;1.40;;
21886;SDS011;11108;49.988;8.182;2023-04-07T01:26:48;1.43;;;1.33;;
21886;SDS011;11108;49.988;8.182;2023-04-07T01:31:20;1.40;;;1.40;;
21886;SDS011;11108;49.988;8.182;2023-04-07T01:33:46;1.70;;;1.60;;
21886;SDS011;11108;49.988;8.182;2023-04-07T01:36:13;1.40;;;1.30;;
21886;SDS011;11108;49.988;8.182;2023-04-07T01:38:39;1.63;;;1.50;;
21886;SDS011;11108;49.988;8.182;2023-04-07T01:41:05;1.10;;;1.10;;
21886;SDS011;11108;49.988;8.182;2023-04-07T01:43:32;1.10;;;1.10;;
21886;SDS011;11108;49.988;8.182;2023-04-07T01:45:58;1.40;;;1.30;;
21886;SDS011;11108;49.988;8.182;2023-04-07T01:48:23;1.40;;;1.30;;
21886;SDS011;11108;49.988;8.182;2023-04-07T01:50:49;1.20;;;1.20;;
21886;SDS011;11108;49.988;8.182;2023-04-07T01:53:15;1.43;;;1.33;;
21886;SDS011;11108;49.988;8.182;2023-04-07T01:55:43;1.70;;;1.60;;
21886;SDS011;11108;49.988;8.182;2023-04-07T01:58:09;1.23;;;1.23;;
21886;SDS011;11108;49.988;8.182;2023-04-07T02:00:34;1.40;;;1.40;;
21886;SDS011;11108;49.988;8.182;2023-04-07T02:03:03;1.50;;;1.37;;
21886;SDS011;11108;49.988;8.182;2023-04-07T02:05:29;1.87;;;1.77;;
21886;SDS011;11108;49.988;8.182;2023-04-07T02:07:57;1.63;;;1.60;;
21886;SDS011;11108;49.988;8.182;2023-04-07T02:10:24;1.37;;;1.37;;
21886;SDS011;11108;49.988;8.182;2023-04-07T02:12:50;1.47;;;1.40;;
21886;SDS011;11108;49.988;8.182;2023-04-07T02:15:16;1.43;;;1.33;;
21886;SDS011;11108;49.988;8.182;2023-04-07T02:17:45;1.30;;;1.30;;
21886;SDS011;11108;49.988;8.182;2023-04-07T02:20:11;2.13;;;1.57;;
21886;SDS011;11108;49.988;8.182;2023-04-07T02:22:37;1.30;;;1.30;;
21886;SDS011;11108;49.988;8.182;2023-04-07T02:25:19;1.53;;;1.43;;
21886;SDS011;11108;49.988;8.182;2023-04-07T02:27:44;1.53;;;1.43;;
21886;SDS011;11108;49.988;8.182;2023-04-07T02:30:09;1.20;;;1.20;;
21886;SDS011;11108;49.988;8.182;2023-04-07T02:32:35;1.30;;;1.30;;
21886;SDS011;11108;49.988;8.182;2023-04-07T02:35:00;1.27;;;1.27;;
21886;SDS011;11108;49.988;8.182;2023-04-07T02:37:25;1.63;;;1.50;;
21886;SDS011;11108;49.988;8.182;2023-04-07T02:39:51;1.60;;;1.50;;
21886;SDS011;11108;49.988;8.182;2023-04-07T02:42:16;1.83;;;1.73;;
21886;SDS011;11108;49.988;8.182;2023-04-07T02:44:41;2.60;;;1.40;;
21886;SDS011;11108;49.988;8.182;2023-04-07T02:47:06;2.03;;;1.83;;
21886;SDS011;11108;49.988;8.182;2023-04-07T02:49:31;1.30;;;1.30;;
21886;SDS011;11108;49.988;8.182;2023-04-07T02:51:56;1.67;;;1.57;;
21886;SDS011;11108;49.988;8.182;2023-04-07T02:54:22;1.57;;;1.57;;
21886;SDS011;11108;49.988;8.182;2023-04-07T02:56:47;1.30;;;1.20;;
21886;SDS011;11108;49.988;8.182;2023-04-07T02:59:12;1.23;;;1.13;;
21886;SDS011;11108;49.988;8.182;2023-04-07T03:01:37;1.60;;;1.50;;
21886;SDS011;11108;49.988;8.182;2023-04-07T03:04:04;1.40;;;1.30;;
21886;SDS011;11108;49.988;8.182;2023-04-07T03:06:30;1.27;;;1.27;;
21886;SDS011;11108;49.988;8.182;2023-04-07T03:08:55;1.50;;;1.40;;
21886;SDS011;11108;49.988;8.182;2023-04-07T03:11:20;1.80;;;1.70;;
21886;SDS011;11108;49.988;8.182;2023-04-07T03:13:45;1.50;;;1.50;;
21886;SDS011;11108;49.988;8.182;2023-04-07T03:16:11;1.67;;;1.57;;
21886;SDS011;11108;49.988;8.182;2023-04-07T03:18:36;1.30;;;1.30;;
21886;SDS011;11108;49.988;8.182;2023-04-07T03:21:01;1.60;;;1.60;;
21886;SDS011;11108;49.988;8.182;2023-04-07T03:23:27;1.57;;;1.57;;
21886;SDS011;11108;49.988;8.182;2023-04-07T03:25:53;1.57;;;1.23;;
21886;SDS011;11108;49.988;8.182;2023-04-07T03:28:18;1.40;;;1.30;;
21886;SDS011;11108;49.988;8.182;2023-04-07T03:30:43;1.23;;;1.23;;
21886;SDS011;11108;49.988;8.182;2023-04-07T03:33:09;1.30;;;1.30;;
21886;SDS011;11108;49.988;8.182;2023-04-07T03:35:34;1.33;;;1.33;;
21886;SDS011;11108;49.988;8.182;2023-04-07T03:37:59;1.60;;;1.50;;
21886;SDS011;11108;49.988;8.182;2023-04-07T03:40:24;1.43;;;1.43;;
21886;SDS011;11108;49.988;8.182;2023-04-07T03:42:49;1.20;;;1.20;;
21886;SDS011;11108;49.988;8.182;2023-04-07T03:45:15;1.70;;;1.60;;
21886;SDS011;11108;49.988;8.182;2023-04-07T03:47:41;1.40;;;1.30;;
21886;SDS011;11108;49.988;8.182;2023-04-07T03:50:06;1.70;;;1.60;;
21886;SDS011;11108;49.988;8.182;2023-04-07T03:52:32;1.47;;;1.47;;
21886;SDS011;11108;49.988;8.182;2023-04-07T03:54:57;1.00;;;1.00;;
21886;SDS011;11108;49.988;8.182;2023-04-07T03:57:22;1.30;;;1.30;;
21886;SDS011;11108;49.988;8.182;2023-04-07T03:59:47;1.57;;;1.50;;
21886;SDS011;11108;49.988;8.182;2023-04-07T04:02:15;1.20;;;1.20;;
21886;SDS011;11108;49.988;8.182;2023-04-07T04:04:40;1.13;;;1.13;;
21886;SDS011;11108;49.988;8.182;2023-04-07T04:07:05;1.20;;;1.20;;
21886;SDS011;11108;49.988;8.182;2023-04-07T04:09:30;1.33;;;1.33;;
21886;SDS011;11108;49.988;8.182;2023-04-07T04:11:56;1.57;;;1.47;;
21886;SDS011;11108;49.988;8.182;2023-04-07T04:14:21;1.50;;;1.30;;
21886;SDS011;11108;49.988;8.182;2023-04-07T04:16:46;1.60;;;1.50;;
21886;SDS011;11108;49.988;8.182;2023-04-07T04:19:12;1.40;;;1.30;;
21886;SDS011;11108;49.988;8.182;2023-04-07T04:21:37;1.23;;;1.23;;
21886;SDS011;11108;49.988;8.182;2023-04-07T04:24:02;1.50;;;1.40;;
21886;SDS011;11108;49.988;8.182;2023-04-07T04:26:28;1.40;;;1.40;;
21886;SDS011;11108;49.988;8.182;2023-04-07T04:28:53;1.63;;;1.53;;
21886;SDS011;11108;49.988;8.182;2023-04-07T04:31:19;1.20;;;1.20;;
21886;SDS011;11108;49.988;8.182;2023-04-07T04:33:44;1.30;;;1.20;;
21886;SDS011;11108;49.988;8.182;2023-04-07T04:36:10;1.13;;;1.13;;
21886;SDS011;11108;49.988;8.182;2023-04-07T04:38:35;1.23;;;1.23;;
21886;SDS011;11108;49.988;8.182;2023-04-07T04:41:00;1.53;;;1.47;;
21886;SDS011;11108;49.988;8.182;2023-04-07T04:43:26;1.50;;;1.40;;
21886;SDS011;11108;49.988;8.182;2023-04-07T04:45:51;1.40;;;1.30;;
21886;SDS011;11108;49.988;8.182;2023-04-07T04:48:16;1.40;;;1.40;;
21886;SDS011;11108;49.988;8.182;2023-04-07T04:50:41;1.33;;;1.33;;
21886;SDS011;11108;49.988;8.182;2023-04-07T04:53:07;1.07;;;1.07;;
21886;SDS011;11108;49.988;8.182;2023-04-07T04:55:32;1.47;;;1.40;;
21886;SDS011;11108;49.988;8.182;2023-04-07T04:57:58;1.30;;;1.30;;
21886;SDS011;11108;49.988;8.182;2023-04-07T05:00:23;1.50;;;1.50;;
21886;SDS011;11108;49.988;8.182;2023-04-07T05:02:48;1.20;;;1.20;;
21886;SDS011;11108;49.988;8.182;2023-04-07T05:05:13;1.20;;;1.20;;
21886;SDS011;11108;49.988;8.182;2023-04-07T05:07:39;1.30;;;1.20;;
21886;SDS011;11108;49.988;8.182;2023-04-07T05:10:05;1.60;;;1.23;;
21886;SDS011;11108;49.988;8.182;2023-04-07T05:12:30;2.10;;;1.63;;
21886;SDS011;11108;49.988;8.182;2023-04-07T05:14:55;1.47;;;1.40;;
21886;SDS011;11108;49.988;8.182;2023-04-07T05:17:21;1.80;;;1.70;;
21886;SDS011;11108;49.988;8.182;2023-04-07T05:19:46;1.20;;;1.20;;
21886;SDS011;11108;49.988;8.182;2023-04-07T05:22:11;1.43;;;1.30;;
21886;SDS011;11108;49.988;8.182;2023-04-07T05:24:36;1.20;;;1.20;;
21886;SDS011;11108;49.988;8.182;2023-04-07T05:27:01;1.60;;;1.50;;
21886;SDS011;11108;49.988;8.182;2023-04-07T05:29:27;2.00;;;1.40;;
21886;SDS011;11108;49.988;8.182;2023-04-07T05:31:52;2.67;;;1.47;;
21886;SDS011;11108;49.988;8.182;2023-04-07T05:34:17;1.30;;;1.30;;
21886;SDS011;11108;49.988;8.182;2023-04-07T05:36:42;1.30;;;1.30;;
21886;SDS011;11108;49.988;8.182;2023-04-07T05:39:07;1.53;;;1.20;;
21886;SDS011;11108;49.988;8.182;2023-04-07T05:41:33;1.50;;;1.40;;
21886;SDS011;11108;49.988;8.182;2023-04-07T05:43:58;1.57;;;1.37;;
21886;SDS011;11108;49.988;8.182;2023-04-07T05:46:23;1.40;;;1.30;;
21886;SDS011;11108;49.988;8.182;2023-04-07T05:48:48;3.80;;;1.40;;
21886;SDS011;11108;49.988;8.182;2023-04-07T05:51:13;1.87;;;1.77;;
21886;SDS011;11108;49.988;8.182;2023-04-07T05:53:39;2.03;;;1.50;;
21886;SDS011;11108;49.988;8.182;2023-04-07T05:56:04;1.83;;;1.43;;
21886;SDS011;11108;49.988;8.182;2023-04-07T05:58:30;1.53;;;1.50;;
21886;SDS011;11108;49.988;8.182;2023-04-07T06:00:55;2.33;;;1.60;;
21886;SDS011;11108;49.988;8.182;2023-04-07T06:03:21;1.40;;;1.30;;
21886;SDS011;11108;49.988;8.182;2023-04-07T06:05:46;1.93;;;1.50;;
21886;SDS011;11108;49.988;8.182;2023-04-07T06:08:11;3.27;;;1.43;;
21886;SDS011;11108;49.988;8.182;2023-04-07T06:10:36;1.60;;;1.50;;
21886;SDS011;11108;49.988;8.182;2023-04-07T06:13:02;1.67;;;1.57;;
21886;SDS011;11108;49.988;8.182;2023-04-07T06:15:27;3.67;;;1.97;;
21886;SDS011;11108;49.988;8.182;2023-04-07T06:17:52;14.20;;;4.37;;
21886;SDS011;11108;49.988;8.182;2023-04-07T06:20:17;16.43;;;4.97;;
21886;SDS011;11108;49.988;8.182;2023-04-07T06:22:45;11.00;;;4.23;;
21886;SDS011;11108;49.988;8.182;2023-04-07T06:25:10;16.63;;;4.47;;
21886;SDS011;11108;49.988;8.182;2023-04-07T06:27:35;12.20;;;4.03;;
21886;SDS011;11108;49.988;8.182;2023-04-07T06:30:01;6.27;;;3.50;;
21886;SDS011;11108;49.988;8.182;2023-04-07T06:32:26;13.70;;;4.33;;
21886;SDS011;11108;49.988;8.182;2023-04-07T06:34:52;9.37;;;4.03;;
21886;SDS011;11108;49.988;8.182;2023-04-07T06:37:17;13.60;;;4.43;;
21886;SDS011;11108;49.988;8.182;2023-04-07T06:39:42;12.07;;;4.27;;
21886;SDS011;11108;49.988;8.182;2023-04-07T06:42:08;11.90;;;3.83;;
21886;SDS011;11108;49.988;8.182;2023-04-07T06:44:33;5.90;;;3.20;;
21886;SDS011;11108;49.988;8.182;2023-04-07T06:46:58;11.70;;;4.20;;
21886;SDS011;11108;49.988;8.182;2023-04-07T06:49:23;9.90;;;3.60;;
21886;SDS011;11108;49.988;8.182;2023-04-07T06:51:49;8.03;;;3.43;;
21886;SDS011;11108;49.988;8.182;2023-04-07T06:54:14;9.03;;;3.27;;
21886;SDS011;11108;49.988;8.182;2023-04-07T06:56:43;7.27;;;3.60;;
21886;SDS011;11108;49.988;8.182;2023-04-07T06:59:08;8.33;;;2.57;;
21886;SDS011;11108;49.988;8.182;2023-04-07T07:01:34;6.83;;;2.97;;
21886;SDS011;11108;49.988;8.182;2023-04-07T07:03:59;7.60;;;2.87;;
21886;SDS011;11108;49.988;8.182;2023-04-07T07:06:25;5.57;;;3.30;;
21886;SDS011;11108;49.988;8.182;2023-04-07T07:08:53;5.90;;;3.20;;
21886;SDS011;11108;49.988;8.182;2023-04-07T07:11:18;7.27;;;3.10;;
21886;SDS011;11108;49.988;8.182;2023-04-07T07:13:47;7.43;;;2.73;;
21886;SDS011;11108;49.988;8.182;2023-04-07T07:16:12;5.83;;;2.80;;
21886;SDS011;11108;49.988;8.182;2023-04-07T07:18:42;5.07;;;2.70;;
21886;SDS011;11108;49.988;8.182;2023-04-07T07:21:08;5.43;;;2.53;;
21886;SDS011;11108;49.988;8.182;2023-04-07T07:23:33;6.33;;;2.47;;
21886;SDS011;11108;49.988;8.182;2023-04-07T07:25:58;5.97;;;2.70;;
21886;SDS011;11108;49.988;8.182;2023-04-07T07:28:24;4.77;;;2.57;;
21886;SDS011;11108;49.988;8.182;2023-04-07T07:30:49;4.87;;;2.43;;
21886;SDS011;11108;49.988;8.182;2023-04-07T07:33:15;4.87;;;2.50;;
21886;SDS011;11108;49.988;8.182;2023-04-07T07:35:50;7.60;;;2.83;;
21886;SDS011;11108;49.988;8.182;2023-04-07T07:38:15;5.13;;;2.40;;
21886;SDS011;11108;49.988;8.182;2023-04-07T07:40:40;4.87;;;2.57;;
21886;SDS011;11108;49.988;8.182;2023-04-07T07:43:11;3.93;;;2.27;;
21886;SDS011;11108;49.988;8.182;2023-04-07T07:45:37;4.07;;;2.60;;
21886;SDS011;11108;49.988;8.182;2023-04-07T07:48:02;2.23;;;1.90;;
21886;SDS011;11108;49.988;8.182;2023-04-07T07:50:27;3.83;;;2.10;;
21886;SDS011;11108;49.988;8.182;2023-04-07T07:52:52;4.03;;;2.47;;
21886;SDS011;11108;49.988;8.182;2023-04-07T07:55:21;4.27;;;2.30;;
21886;SDS011;11108;49.988;8.182;2023-04-07T07:57:46;4.50;;;2.30;;
21886;SDS011;11108;49.988;8.182;2023-04-07T08:00:11;2.43;;;2.17;;
21886;SDS011;11108;49.988;8.182;2023-04-07T08:02:47;3.83;;;2.13;;
21886;SDS011;11108;49.988;8.182;2023-04-07T08:05:12;3.53;;;2.20;;
21886;SDS011;11108;49.988;8.182;2023-04-07T08:07:40;4.87;;;2.07;;
21886;SDS011;11108;49.988;8.182;2023-04-07T08:10:12;2.40;;;2.13;;
21886;SDS011;11108;49.988;8.182;2023-04-07T08:12:39;3.60;;;2.07;;
21886;SDS011;11108;49.988;8.182;2023-04-07T08:15:07;2.80;;;2.10;;
21886;SDS011;11108;49.988;8.182;2023-04-07T08:17:37;2.37;;;1.90;;
21886;SDS011;11108;49.988;8.182;2023-04-07T08:20:12;2.27;;;2.03;;
21886;SDS011;11108;49.988;8.182;2023-04-07T08:22:40;1.73;;;1.63;;
21886;SDS011;11108;49.988;8.182;2023-04-07T08:25:07;2.30;;;1.93;;
21886;SDS011;11108;49.988;8.182;2023-04-07T08:27:42;2.67;;;2.20;;
21886;SDS011;11108;49.988;8.182;2023-04-07T08:30:38;3.30;;;1.93;;
21886;SDS011;11108;49.988;8.182;2023-04-07T08:33:04;2.93;;;2.23;;
21886;SDS011;11108;49.988;8.182;2023-04-07T08:35:30;3.00;;;2.23;;
21886;SDS011;11108;49.988;8.182;2023-04-07T08:37:55;2.40;;;1.87;;
21886;SDS011;11108;49.988;8.182;2023-04-07T08:40:20;1.70;;;1.60;;
21886;SDS011;11108;49.988;8.182;2023-04-07T08:42:46;1.90;;;1.67;;
21886;SDS011;11108;49.988;8.182;2023-04-07T08:45:12;2.03;;;1.80;;
21886;SDS011;11108;49.988;8.182;2023-04-07T08:47:38;2.20;;;1.80;;
21886;SDS011;11108;49.988;8.182;2023-04-07T08:50:08;3.50;;;1.90;;
21886;SDS011;11108;49.988;8.182;2023-04-07T08:52:34;2.47;;;1.50;;
21886;SDS011;11108;49.988;8.182;2023-04-07T08:55:02;2.03;;;1.83;;
21886;SDS011;11108;49.988;8.182;2023-04-07T08:57:29;2.03;;;1.93;;
21886;SDS011;11108;49.988;8.182;2023-04-07T08:59:55;2.80;;;1.90;;
21886;SDS011;11108;49.988;8.182;2023-04-07T09:02:21;1.70;;;1.60;;
21886;SDS011;11108;49.988;8.182;2023-04-07T09:04:47;1.60;;;1.50;;
21886;SDS011;11108;49.988;8.182;2023-04-07T09:07:12;1.83;;;1.53;;
21886;SDS011;11108;49.988;8.182;2023-04-07T09:09:38;2.17;;;1.97;;
21886;SDS011;11108;49.988;8.182;2023-04-07T09:12:03;2.60;;;1.70;;
21886;SDS011;11108;49.988;8.182;2023-04-07T09:14:28;2.90;;;2.00;;
21886;SDS011;11108;49.988;8.182;2023-04-07T09:16:53;2.60;;;1.83;;
21886;SDS011;11108;49.988;8.182;2023-04-07T09:19:23;1.80;;;1.60;;
21886;SDS011;11108;49.988;8.182;2023-04-07T09:21:50;2.50;;;1.90;;
21886;SDS011;11108;49.988;8.182;2023-04-07T09:26:47;1.90;;;1.33;;
21886;SDS011;11108;49.988;8.182;2023-04-07T09:29:14;1.40;;;1.40;;
21886;SDS011;11108;49.988;8.182;2023-04-07T09:31:43;1.77;;;1.67;;
21886;SDS011;11108;49.988;8.182;2023-04-07T09:34:32;1.80;;;1.70;;
21886;SDS011;11108;49.988;8.182;2023-04-07T09:36:55;1.53;;;1.40;;
21886;SDS011;11108;49.988;8.182;2023-04-07T09:39:21;1.60;;;1.50;;
21886;SDS011;11108;49.988;8.182;2023-04-07T09:41:46;2.00;;;1.60;;
21886;SDS011;11108;49.988;8.182;2023-04-07T09:44:12;1.73;;;1.63;;
21886;SDS011;11108;49.988;8.182;2023-04-07T09:46:56;2.17;;;1.97;;
21886;SDS011;11108;49.988;8.182;2023-04-07T09:49:47;1.73;;;1.47;;
21886;SDS011;11108;49.988;8.182;2023-04-07T09:52:10;2.30;;;1.50;;
21886;SDS011;11108;49.988;8.182;2023-04-07T09:54:37;1.60;;;1.60;;
21886;SDS011;11108;49.988;8.182;2023-04-07T09:57:03;1.77;;;1.67;;
21886;SDS011;11108;49.988;8.182;2023-04-07T09:59:29;1.60;;;1.50;;
21886;SDS011;11108;49.988;8.182;2023-04-07T10:01:54;1.67;;;1.57;;
21886;SDS011;11108;49.988;8.182;2023-04-07T10:04:41;1.50;;;1.40;;
21886;SDS011;11108;49.988;8.182;2023-04-07T10:07:06;1.30;;;1.30;;
21886;SDS011;11108;49.988;8.182;2023-04-07T10:09:34;1.80;;;1.70;;
21886;SDS011;11108;49.988;8.182;2023-04-07T10:12:00;1.77;;;1.67;;
21886;SDS011;11108;49.988;8.182;2023-04-07T10:14:27;1.53;;;1.50;;
21886;SDS011;11108;49.988;8.182;2023-04-07T10:16:52;2.13;;;1.90;;
21886;SDS011;11108;49.988;8.182;2023-04-07T10:19:24;2.50;;;1.43;;
21886;SDS011;11108;49.988;8.182;2023-04-07T10:21:52;1.67;;;1.57;;
21886;SDS011;11108;49.988;8.182;2023-04-07T10:27:08;1.40;;;1.40;;
21886;SDS011;11108;49.988;8.182;2023-04-07T10:29:36;1.53;;;1.53;;
21886;SDS011;11108;49.988;8.182;2023-04-07T10:32:03;1.57;;;1.47;;
21886;SDS011;11108;49.988;8.182;2023-04-07T10:37:13;1.50;;;1.40;;
21886;SDS011;11108;49.988;8.182;2023-04-07T10:39:48;1.60;;;1.50;;
21886;SDS011;11108;49.988;8.182;2023-04-07T10:44:57;1.30;;;1.30;;
21886;SDS011;11108;49.988;8.182;2023-04-07T10:47:24;1.60;;;1.50;;
21886;SDS011;11108;49.988;8.182;2023-04-07T10:52:36;1.37;;;1.33;;
21886;SDS011;11108;49.988;8.182;2023-04-07T11:00:30;1.40;;;1.40;;
21886;SDS011;11108;49.988;8.182;2023-04-07T11:03:05;1.40;;;1.40;;
21886;SDS011;11108;49.988;8.182;2023-04-07T11:05:34;1.37;;;1.37;;
21886;SDS011;11108;49.988;8.182;2023-04-07T11:08:02;1.30;;;1.20;;
21886;SDS011;11108;49.988;8.182;2023-04-07T11:10:30;1.30;;;1.30;;
21886;SDS011;11108;49.988;8.182;2023-04-07T11:12:59;1.20;;;1.20;;
21886;SDS011;11108;49.988;8.182;2023-04-07T11:15:45;1.23;;;1.23;;
21886;SDS011;11108;49.988;8.182;2023-04-07T11:18:20;1.27;;;1.27;;
21886;SDS011;11108;49.988;8.182;2023-04-07T11:20:49;1.60;;;1.20;;
21886;SDS011;11108;49.988;8.182;2023-04-07T11:23:15;1.53;;;1.43;;
21886;SDS011;11108;49.988;8.182;2023-04-07T11:25:41;1.20;;;1.20;;
21886;SDS011;11108;49.988;8.182;2023-04-07T11:28:08;1.00;;;1.00;;
21886;SDS011;11108;49.988;8.182;2023-04-07T11:30:35;1.10;;;1.10;;
21886;SDS011;11108;49.988;8.182;2023-04-07T11:33:01;1.03;;;1.03;;
21886;SDS011;11108;49.988;8.182;2023-04-07T11:35:28;1.17;;;1.17;;
21886;SDS011;11108;49.988;8.182;2023-04-07T11:37:57;1.30;;;1.30;;
21886;SDS011;11108;49.988;8.182;2023-04-07T11:40:32;1.00;;;1.00;;
21886;SDS011;11108;49.988;8.182;2023-04-07T11:42:58;1.37;;;1.30;;
21886;SDS011;11108;49.988;8.182;2023-04-07T11:45:23;1.33;;;1.03;;
21886;SDS011;11108;49.988;8.182;2023-04-07T11:47:49;1.07;;;1.07;;
21886;SDS011;11108;49.988;8.182;2023-04-07T11:50:14;1.20;;;1.20;;
21886;SDS011;11108;49.988;8.182;2023-04-07T11:52:44;1.57;;;1.10;;
21886;SDS011;11108;49.988;8.182;2023-04-07T11:55:19;1.00;;;1.00;;
21886;SDS011;11108;49.988;8.182;2023-04-07T11:57:45;1.97;;;1.07;;
21886;SDS011;11108;49.988;8.182;2023-04-07T12:00:11;1.20;;;1.20;;
21886;SDS011;11108;49.988;8.182;2023-04-07T12:02:38;1.47;;;1.30;;
21886;SDS011;11108;49.988;8.182;2023-04-07T12:05:03;1.27;;;1.17;;
21886;SDS011;11108;49.988;8.182;2023-04-07T12:07:29;1.00;;;1.00;;
21886;SDS011;11108;49.988;8.182;2023-04-07T12:09:54;1.10;;;1.10;;
21886;SDS011;11108;49.988;8.182;2023-04-07T12:12:28;1.20;;;1.10;;
21886;SDS011;11108;49.988;8.182;2023-04-07T12:14:54;1.10;;;1.10;;
21886;SDS011;11108;49.988;8.182;2023-04-07T12:17:23;1.13;;;1.13;;
21886;SDS011;11108;49.988;8.182;2023-04-07T12:19:49;0.87;;;0.87;;
21886;SDS011;11108;49.988;8.182;2023-04-07T12:22:14;1.00;;;1.00;;
21886;SDS011;11108;49.988;8.182;2023-04-07T12:24:40;1.30;;;1.20;;
21886;SDS011;11108;49.988;8.182;2023-04-07T12:27:05;0.83;;;0.80;;
21886;SDS011;11108;49.988;8.182;2023-04-07T12:29:30;1.20;;;1.20;;
21886;SDS011;11108;49.988;8.182;2023-04-07T12:31:56;1.03;;;1.03;;
21886;SDS011;11108;49.988;8.182;2023-04-07T12:34:21;0.80;;;0.80;;
21886;SDS011;11108;49.988;8.182;2023-04-07T12:36:46;1.10;;;1.10;;
21886;SDS011;11108;49.988;8.182;2023-04-07T12:39:12;1.30;;;1.30;;
21886;SDS011;11108;49.988;8.182;2023-04-07T12:41:37;1.10;;;1.10;;
21886;SDS011;11108;49.988;8.182;2023-04-07T12:44:03;1.10;;;1.10;;
21886;SDS011;11108;49.988;8.182;2023-04-07T12:46:31;1.20;;;1.10;;
21886;SDS011;11108;49.988;8.182;2023-04-07T12:49:05;1.10;;;1.10;;
21886;SDS011;11108;49.988;8.182;2023-04-07T12:51:38;0.80;;;0.80;;
21886;SDS011;11108;49.988;8.182;2023-04-07T12:54:04;1.20;;;1.20;;
21886;SDS011;11108;49.988;8.182;2023-04-07T12:56:29;0.80;;;0.80;;
21886;SDS011;11108;49.988;8.182;2023-04-07T12:59:01;0.90;;;0.90;;
21886;SDS011;11108;49.988;8.182;2023-04-07T13:01:30;1.10;;;1.10;;
21886;SDS011;11108;49.988;8.182;2023-04-07T13:03:58;1.20;;;1.20;;
21886;SDS011;11108;49.988;8.182;2023-04-07T13:06:23;1.30;;;1.30;;
21886;SDS011;11108;49.988;8.182;2023-04-07T13:08:51;0.90;;;0.90;;
21886;SDS011;11108;49.988;8.182;2023-04-07T13:11:16;1.20;;;1.20;;
21886;SDS011;11108;49.988;8.182;2023-04-07T13:13:45;1.10;;;1.10;;
21886;SDS011;11108;49.988;8.182;2023-04-07T13:16:11;1.10;;;1.10;;
21886;SDS011;11108;49.988;8.182;2023-04-07T13:18:36;1.00;;;0.90;;
21886;SDS011;11108;49.988;8.182;2023-04-07T13:21:04;0.90;;;0.90;;
21886;SDS011;11108;49.988;8.182;2023-04-07T13:23:30;1.00;;;1.00;;
21886;SDS011;11108;49.988;8.182;2023-04-07T13:28:41;1.20;;;1.10;;
21886;SDS011;11108;49.988;8.182;2023-04-07T13:31:09;0.97;;;0.93;;
21886;SDS011;11108;49.988;8.182;2023-04-07T13:33:37;1.00;;;1.00;;
21886;SDS011;11108;49.988;8.182;2023-04-07T13:36:02;0.90;;;0.90;;
21886;SDS011;11108;49.988;8.182;2023-04-07T13:38:27;1.00;;;1.00;;
21886;SDS011;11108;49.988;8.182;2023-04-07T13:40:52;1.00;;;1.00;;
21886;SDS011;11108;49.988;8.182;2023-04-07T13:43:18;1.07;;;1.03;;
21886;SDS011;11108;49.988;8.182;2023-04-07T13:45:44;1.00;;;1.00;;
21886;SDS011;11108;49.988;8.182;2023-04-07T13:48:09;0.90;;;0.90;;
21886;SDS011;11108;49.988;8.182;2023-04-07T13:50:35;1.27;;;1.17;;
21886;SDS011;11108;49.988;8.182;2023-04-07T13:53:00;1.00;;;1.00;;
21886;SDS011;11108;49.988;8.182;2023-04-07T13:55:26;1.10;;;1.10;;
21886;SDS011;11108;49.988;8.182;2023-04-07T13:57:51;0.80;;;0.80;;
21886;SDS011;11108;49.988;8.182;2023-04-07T14:00:17;0.90;;;0.90;;
21886;SDS011;11108;49.988;8.182;2023-04-07T14:02:42;1.20;;;1.10;;
21886;SDS011;11108;49.988;8.182;2023-04-07T14:05:09;0.93;;;0.93;;
21886;SDS011;11108;49.988;8.182;2023-04-07T14:07:34;0.90;;;0.90;;
21886;SDS011;11108;49.988;8.182;2023-04-07T14:10:00;0.70;;;0.70;;
21886;SDS011;11108;49.988;8.182;2023-04-07T14:12:25;1.10;;;1.10;;
21886;SDS011;11108;49.988;8.182;2023-04-07T14:14:50;0.90;;;0.90;;
21886;SDS011;11108;49.988;8.182;2023-04-07T14:17:16;1.10;;;1.10;;
21886;SDS011;11108;49.988;8.182;2023-04-07T14:19:42;1.00;;;1.00;;
21886;SDS011;11108;49.988;8.182;2023-04-07T14:22:07;1.00;;;1.00;;
21886;SDS011;11108;49.988;8.182;2023-04-07T14:24:32;1.13;;;1.00;;
21886;SDS011;11108;49.988;8.182;2023-04-07T14:26:57;0.90;;;0.90;;
21886;SDS011;11108;49.988;8.182;2023-04-07T14:29:28;1.10;;;1.10;;
21886;SDS011;11108;49.988;8.182;2023-04-07T14:31:53;0.80;;;0.80;;
21886;SDS011;11108;49.988;8.182;2023-04-07T14:34:18;1.10;;;1.10;;
21886;SDS011;11108;49.988;8.182;2023-04-07T14:37:02;1.57;;;1.00;;
21886;SDS011;11108;49.988;8.182;2023-04-07T14:39:27;1.00;;;1.00;;
21886;SDS011;11108;49.988;8.182;2023-04-07T14:41:53;1.00;;;1.00;;
21886;SDS011;11108;49.988;8.182;2023-04-07T14:44:18;0.80;;;0.80;;
21886;SDS011;11108;49.988;8.182;2023-04-07T14:46:43;0.97;;;0.97;;
21886;SDS011;11108;49.988;8.182;2023-04-07T14:49:09;0.90;;;0.90;;
21886;SDS011;11108;49.988;8.182;2023-04-07T14:51:34;1.10;;;1.10;;
21886;SDS011;11108;49.988;8.182;2023-04-07T14:53:59;1.10;;;1.10;;
21886;SDS011;11108;49.988;8.182;2023-04-07T14:56:25;1.00;;;1.00;;
21886;SDS011;11108;49.988;8.182;2023-04-07T14:58:50;0.90;;;0.90;;
21886;SDS011;11108;49.988;8.182;2023-04-07T15:01:15;1.10;;;1.10;;
21886;SDS011;11108;49.988;8.182;2023-04-07T15:03:41;0.93;;;0.93;;
21886;SDS011;11108;49.988;8.182;2023-04-07T15:06:07;0.87;;;0.87;;
21886;SDS011;11108;49.988;8.182;2023-04-07T15:08:32;0.90;;;0.90;;
21886;SDS011;11108;49.988;8.182;2023-04-07T15:10:58;0.87;;;0.87;;